Flight Track Log - Related Links

Times and Time Zones

All times are in EST time to prevent confusion due to time zone crossing. See the N757AN flight status page for this flight to view local times or setup timezone preferences in your user account.


Time Position Orientation Groundspeed Altitude Reporting Facility
EST Latitude Longitude Course Direction KTS MPH feet Rate Location/Type
Mon 04:24:52 PM 33.9333 -118.4500 312° West 188 216 1,600  Level Southern California TRACON
Mon 04:26:01 PM 33.8917 -118.5111 231° Southwest 229 264 2,700 1,374 Climbing Los Angeles Center
Mon 04:27:00 PM 34.1635 -118.7061 312° West  Level Estimated
Mon 04:27:03 PM 33.8478 -118.5797 232° Southwest 255 293 4,600  Level Los Angeles Center
Mon 04:28:00 PM 34.2370 -118.8058 312° West  Level Estimated
Mon 04:28:05 PM 33.8053 -118.6444 232° Southwest 267 307 6,500  Level Los Angeles Center
Mon 04:29:00 PM 34.3104 -118.9057 312° West  Level Estimated
Mon 04:29:07 PM 33.7869 -118.7303 256° West 266 306 8,500  Level Los Angeles Center
Mon 04:30:00 PM 34.3837 -119.0058 312° West  Level Estimated
Mon 04:30:09 PM 33.7892 -118.8381 271° West 279 321 10,600  Level Los Angeles Center
Mon 04:31:12 PM 33.8211 -118.9306 293° West 298 343 11,700 1,248 Climbing Los Angeles Center
Mon 04:32:14 PM 33.8567 -119.0383 292° West 343 395 13,200 1,597 Climbing Los Angeles Center
Mon 04:33:16 PM 33.8936 -119.1483 292° West 354 407 15,000 1,887 Climbing Los Angeles Center
Mon 04:34:18 PM 33.9314 -119.2594 292° West 359 413 17,100 1,839 Climbing Los Angeles Center
Mon 04:35:20 PM 34.0092 -119.3367 321° Northwest 361 415 18,800 2,081 Climbing Los Angeles Center
Mon 04:36:22 PM 34.1078 -119.4225 324° Northwest 362 417 21,400 2,032 Climbing Los Angeles Center
Mon 04:37:24 PM 34.1897 -119.4886 326° Northwest 355 409 23,000 768 Climbing Los Angeles Center
Mon 04:38:27 PM 34.2800 -119.5311 339° North 349 402 23,000 528 Level Los Angeles Center
Mon 04:39:29 PM 34.3692 -119.5764 337° Northwest 347 399 24,100 1,113 Climbing Los Angeles Center
Mon 04:40:31 PM 34.4439 -119.6522 320° Northwest 365 420 25,300 1,210 Climbing Los Angeles Center
Mon 04:41:33 PM 34.5278 -119.7594 314° West 365 420 26,600 1,113 Climbing Los Angeles Center
Mon 04:42:35 PM 34.5972 -119.8533 312° West 372 428 27,600 871 Climbing Los Angeles Center
Mon 04:43:37 PM 34.6664 -119.9461 312° West 376 433 28,400 823 Climbing Los Angeles Center
Mon 04:44:39 PM 34.7369 -120.0444 311° West 384 442 29,300 768 Climbing Los Angeles Center
Mon 04:45:42 PM 34.8136 -120.1500 312° West 383 441 30,000 290 Climbing Los Angeles Center
Mon 04:46:43 PM 34.8700 -120.2281 311° West 386 444 29,900  Descending Los Angeles Center
Mon 04:47:46 PM 34.9536 -120.3433 312° West 383 441 30,000 48 Climbing Los Angeles Center
Mon 04:48:48 PM 35.0231 -120.4411 311° West 383 441 30,000  Level Los Angeles Center
Mon 04:49:50 PM 35.1067 -120.5578 311° West 383 441 30,000  Level Los Angeles Center
Mon 04:50:52 PM 35.1769 -120.6558 311° West 384 442 30,000 -32 Level Los Angeles Center
Mon 04:52:57 PM 35.3181 -120.8539 311° West 387 445 29,900  Descending Los Angeles Center
Mon 04:53:59 PM 35.3878 -120.9533 311° West 387 445 30,000 48 Climbing Los Angeles Center
Mon 04:55:01 PM 35.4728 -121.0733 311° West 388 447 30,000 -48 Level Los Angeles Center
Mon 04:56:03 PM 35.5431 -121.1739 311° West 389 448 29,900  Descending Los Angeles Center
Mon 04:57:05 PM 35.6144 -121.2742 311° West 392 451 30,000  Climbing Los Angeles Center
Mon 04:58:07 PM 35.6867 -121.3794 310° West 391 450 29,900  Descending Los Angeles Center
Mon 04:59:09 PM 35.7578 -121.4803 311° West 391 450 30,000 48 Climbing Los Angeles Center
Mon 05:00:12 PM 35.8253 -121.5839 309° West 389 448 30,000 -48 Level Los Angeles Center
Mon 05:01:14 PM 35.8811 -121.7331 295° West 400 460 29,900  Descending Los Angeles Center
Mon 05:02:16 PM 35.9342 -121.8531 299° West 399 459 30,000 48 Climbing Los Angeles Center
Mon 05:03:18 PM 35.9853 -121.9733 298° West 398 458 30,000  Level Los Angeles Center
Mon 05:04:20 PM 36.0333 -122.0961 296° West 398 458 30,000 300 Level Los Angeles Center
Mon 05:05:38 PM 36.0956 -122.2556 296° West 401 461 30,700 691 Climbing Oakland Center
Mon 05:06:39 PM 36.1461 -122.3808 297° West 405 466 31,600 590 Climbing Oakland Center
Mon 05:07:40 PM 36.1942 -122.5039 296° West 399 459 31,900 146 Climbing Oakland Center
Mon 05:08:42 PM 36.2428 -122.6267 296° West 398 458 31,900  Level Oakland Center
Mon 05:09:43 PM 36.3003 -122.7744 296° West 396 456 31,900 49 Level Oakland Center
Mon 05:10:44 PM 36.3497 -122.8967 297° West 397 457 32,000 49 Climbing Oakland Center
Mon 05:11:45 PM 36.3975 -123.0194 296° West 396 456 32,000  Level Oakland Center
Mon 05:12:47 PM 36.4450 -123.1436 295° West 398 458 32,000 -49 Level Oakland Center
Mon 05:13:48 PM 36.4939 -123.2672 296° West 399 459 31,900 -49 Descending Oakland Center
Mon 05:14:49 PM 36.5408 -123.3911 295° West 398 458 31,900 49 Level Oakland Center
Mon 05:15:50 PM 36.5883 -123.5161 295° West 398 458 32,000 49 Climbing Oakland Center
Mon 05:16:52 PM 36.6361 -123.6417 295° West 400 460 32,000 -49 Level Oakland Center
Mon 05:17:53 PM 36.6839 -123.7672 295° West 401 461 31,900 -49 Descending Oakland Center
Mon 05:18:54 PM 36.7331 -123.8931 296° West 402 463 31,900  Level Oakland Center
Mon 05:19:55 PM 36.7803 -124.0194 295° West 402 463 31,900  Level Oakland Center
Mon 05:20:56 PM 36.8353 -124.1706 294° West 400 460 31,900 49 Level Oakland Center
Mon 05:21:58 PM 36.8811 -124.2944 295° West 393 452 32,000  Climbing Oakland Center
Mon 05:22:59 PM 36.9289 -124.4233 295° West 403 464 31,900  Descending Oakland Center
Mon 05:24:00 PM 36.9767 -124.5533 295° West 410 472 32,000  Climbing Oakland Center
Mon 05:25:01 PM 37.0244 -124.6819 295° West 410 472 31,900  Descending Oakland Center
Mon 05:26:02 PM 37.0728 -124.8114 295° West 409 471 32,000  Climbing Oakland Center
Mon 05:27:04 PM 37.1194 -124.9406 294° West 408 470 31,900  Descending Oakland Center
Mon 05:28:05 PM 37.1675 -125.0706 295° West 410 472 32,000  Climbing Oakland Center
Mon 05:29:06 PM 37.2147 -125.2017 294° West 412 474 31,900  Descending Oakland Center
Mon 05:30:07 PM 37.2622 -125.3331 294° West 413 475 32,000  Climbing Oakland Center
Mon 05:31:09 PM 37.3186 -125.4919 294° West 415 478 31,900 -49 Descending Oakland Center
Mon 05:32:10 PM 37.3658 -125.6242 294° West 415 478 31,900  Level Oakland Center
Mon 05:33:11 PM 37.4142 -125.7572 295° West 418 481 31,900 49 Level Oakland Center
Mon 05:34:13 PM 37.4608 -125.8911 294° West 417 480 32,000  Climbing Oakland Center
Mon 05:35:14 PM 37.5083 -126.0250 294° West 419 482 31,900  Descending Oakland Center
Mon 05:36:15 PM 37.5558 -126.1586 294° West 419 482 32,000 49 Climbing Oakland Center
Mon 05:37:17 PM 37.6025 -126.2925 294° West 418 481 32,000  Level Oakland Center
Mon 05:38:18 PM 37.6494 -126.4278 294° West 420 483 32,000 -49 Level Oakland Center
Mon 05:39:19 PM 37.7086 -126.5519 301° West 425 489 31,900 -49 Descending Oakland Center
Mon 05:40:21 PM 37.7769 -126.6922 302° West 415 478 31,900  Level Oakland Center
Mon 05:41:22 PM 37.8244 -126.8283 294° West 420 483 31,900 44 Level Oakland Center
Mon 05:42:37 PM 37.8500 -127.0000 271° West 438 504 32,000 13 Climbing Oakland Oceanic (ODAPS)
Mon 05:48:57 PM 37.8500 -127.7833 270° West 442 509 32,000  Level Oakland Oceanic (ODAPS)
Mon 06:01:32 PM 37.8333 -129.9333 270° West 457 526 32,000  Level Oakland Oceanic (ODAPS)
Mon 06:02:06 PM 37.8333 -130.0000 295° West 447 514 32,000  Level Oakland Oceanic (ODAPS)
Mon 06:15:24 PM 38.5333 -131.9000 294° West 453 521 32,000  Level Oakland Oceanic (ODAPS)
Mon 06:29:16 PM 39.2000 -133.9000 293° West 450 518 32,000  Level Oakland Oceanic (ODAPS)
Mon 06:43:08 PM 39.8500 -135.9500 292° West 458 527 32,000  Level Oakland Oceanic (ODAPS)
Mon 06:57:02 PM 40.4833 -138.0833 290° West 460 529 32,000  Level Oakland Oceanic (ODAPS)
Mon 07:09:21 PM 41.0000 -140.0000 295° West 470 541 32,000  Level Oakland Oceanic (ODAPS)
Mon 07:10:53 PM 41.1000 -140.2667 295° West 467 537 32,000  Level Oakland Oceanic (ODAPS)
Mon 07:24:45 PM 41.8500 -142.4500 294° West 471 542 32,000  Level Oakland Oceanic (ODAPS)
Mon 07:38:37 PM 42.5500 -144.7000 292° West 470 541 32,000  Level Oakland Oceanic (ODAPS)
Mon 07:52:30 PM 43.2167 -147.0000 291° West 468 539 32,000  Level Oakland Oceanic (ODAPS)
Mon 08:06:22 PM 43.8167 -149.2833 290° West 461 531 32,000  Level Oakland Oceanic (ODAPS)
Mon 08:10:49 PM 44.0000 -150.0000 281° West 467 537 32,000  Level Oakland Oceanic (ODAPS)
Mon 08:20:14 PM 44.2333 -151.6667 280° West 472 543 32,000  Level Oakland Oceanic (ODAPS)
Mon 08:34:07 PM 44.5167 -154.1333 279° West 473 544 32,000 107 Level Oakland Oceanic (ODAPS)
Mon 08:48:09 PM 44.7667 -156.6333 277° West 465 535 35,000 65 Climbing Oakland Oceanic (ODAPS)
Mon 09:01:51 PM 44.9500 -159.1500 275° West 478 550 33,800 -82 Descending Oakland Oceanic (ODAPS)
Mon 09:06:29 PM 45.0000 -160.0000 274° West 491 565 33,500 -22 Descending Oakland Oceanic (ODAPS)
Mon 09:15:44 PM 45.0667 -161.7833 272° West 492 566 33,500  Level Oakland Oceanic (ODAPS)
Mon 09:29:36 PM 45.1000 -164.4833 270° West 499 574 33,500  Level Oakland Oceanic (ODAPS)
Mon 09:43:28 PM 45.0833 -167.1500 269° West 497 572 33,500  Level Oakland Oceanic (ODAPS)
Mon 09:57:20 PM 45.0000 -169.8667 270° West 493 567 33,500  Level Oakland Oceanic (ODAPS)
Mon 09:58:12 PM 45.0000 -170.0000 266° West 499 574 33,500  Level Oakland Oceanic (ODAPS)
Mon 10:11:21 PM 44.8333 -172.5667 264° West 508 585 33,500  Level Oakland Oceanic (ODAPS)
Mon 10:25:05 PM 44.5833 -175.3167 262° West 503 579 33,500  Level Oakland Oceanic (ODAPS)
Mon 10:38:57 PM 44.2833 -177.9667 260° West 494 568 33,500  Level Oakland Oceanic (ODAPS)
Mon 10:50:14 PM 44.0000 180.0000 251° West 482 555 33,500  Level Oakland Oceanic (ODAPS)
Mon 10:52:50 PM 43.8833 179.5167 251° West 478 550 33,500 30 Level Oakland Oceanic (ODAPS)
Mon 11:06:42 PM 43.2500 177.1167 249° West 484 557 34,000 18 Climbing Oakland Oceanic (ODAPS)
Mon 11:20:34 PM 42.5667 174.7167 248° West 481 554 34,000 36 Level Oakland Oceanic (ODAPS)
Mon 11:34:27 PM 41.8500 172.4833 246° West 463 533 35,000 36 Climbing Oakland Oceanic (ODAPS)
Mon 11:48:18 PM 41.1167 170.3333 245° Southwest 451 519 35,000  Level Oakland Oceanic (ODAPS)
Mon 11:50:39 PM 41.0000 170.0000 252° West 437 503 35,000  Level Oakland Oceanic (ODAPS)
Tue 12:02:20 AM 40.5333 168.1833 251° West 432 497 35,000  Level Oakland Oceanic (ODAPS)
Tue 12:16:03 AM 39.9500 166.0667 249° West 428 493 35,000  Level Oakland Oceanic (ODAPS)
Tue 12:17:00 AM 39.9230 165.9727 249° West 432 497 35,000  Level FlightAware Transoceanic
Tue 12:18:00 AM 39.8808 165.8267 249° West 432 497 35,000  Level FlightAware Transoceanic
Tue 12:19:00 AM 39.8384 165.6810 249° West 432 497 35,000  Level FlightAware Transoceanic
Tue 12:20:00 AM 39.7959 165.5354 249° West 432 497 35,000  Level FlightAware Transoceanic
Tue 12:21:00 AM 39.7532 165.3900 249° West 432 497 35,000  Level FlightAware Transoceanic
Tue 12:22:00 AM 39.6970 165.2002 249° West 428 493 35,000  Level FlightAware Transoceanic
Tue 12:23:00 AM 39.6543 165.0564 249° West 428 493 35,000  Level FlightAware Transoceanic
Tue 12:24:00 AM 39.6113 164.9128 249° West 428 493 35,000  Level FlightAware Transoceanic
Tue 12:25:00 AM 39.5682 164.7693 249° West 428 493 35,000  Level FlightAware Transoceanic
Tue 12:26:00 AM 39.5249 164.6261 249° West 428 493 35,000  Level FlightAware Transoceanic
Tue 12:27:00 AM 39.4814 164.4830 248° West 428 493 35,000  Level FlightAware Transoceanic
Tue 12:28:00 AM 39.4377 164.3401 248° West 428 493 35,000  Level FlightAware Transoceanic
Tue 12:29:00 AM 39.3939 164.1974 248° West 428 493 35,000  Level FlightAware Transoceanic
Tue 12:30:00 AM 39.3499 164.0548 248° West 428 493 35,000  Level FlightAware Transoceanic
Tue 12:31:00 AM 39.3057 163.9125 248° West 428 493 35,000  Level FlightAware Transoceanic
Tue 12:32:00 AM 39.2613 163.7703 248° West 428 493 35,000  Level FlightAware Transoceanic
Tue 12:33:00 AM 39.2168 163.6283 248° West 428 493 35,000  Level FlightAware Transoceanic
Tue 12:34:00 AM 39.1721 163.4865 248° West 428 493 35,000  Level FlightAware Transoceanic
Tue 12:35:00 AM 39.1272 163.3448 248° West 428 493 35,000  Level FlightAware Transoceanic
Tue 12:36:00 AM 39.0822 163.2034 248° West 428 493 35,000  Level FlightAware Transoceanic
Tue 12:37:00 AM 39.0369 163.0621 248° West 428 493 35,000  Level FlightAware Transoceanic
Tue 12:38:00 AM 38.9916 162.9210 247° West 428 493 35,000  Level FlightAware Transoceanic
Tue 12:39:00 AM 38.9460 162.7801 247° West 428 493 35,000  Level FlightAware Transoceanic
Tue 12:40:00 AM 38.9003 162.6393 247° West 428 493 35,000  Level FlightAware Transoceanic
Tue 12:41:00 AM 38.8544 162.4988 247° West 428 493 35,000  Level FlightAware Transoceanic
Tue 12:42:00 AM 38.8083 162.3584 247° West 428 493 35,000  Level FlightAware Transoceanic
Tue 12:43:00 AM 38.7621 162.2182 247° West 428 493 35,000  Level FlightAware Transoceanic
Tue 12:44:00 AM 38.7157 162.0782 247° West 428 493 35,000  Level FlightAware Transoceanic
Tue 12:45:00 AM 38.6691 161.9384 247° West 428 493 35,000  Level FlightAware Transoceanic
Tue 12:46:00 AM 38.6224 161.7988 247° West 428 493 35,000  Level FlightAware Transoceanic
Tue 12:47:00 AM 38.5755 161.6593 247° West 428 493 35,000  Level FlightAware Transoceanic
Tue 12:48:00 AM 38.5284 161.5200 247° West 428 493 35,000  Level FlightAware Transoceanic
Tue 12:49:00 AM 38.4812 161.3809 247° West 428 493 35,000  Level FlightAware Transoceanic
Tue 12:50:00 AM 38.4338 161.2420 246° West 428 493 35,000  Level FlightAware Transoceanic
Tue 12:51:00 AM 38.3863 161.1033 246° West 428 493 35,000  Level FlightAware Transoceanic
Tue 12:52:00 AM 38.3386 160.9647 246° West 428 493 35,000  Level FlightAware Transoceanic
Tue 12:53:00 AM 38.2907 160.8264 246° West 428 493 35,000  Level FlightAware Transoceanic
Tue 12:54:00 AM 38.2426 160.6882 246° West 428 493 35,000  Level FlightAware Transoceanic
Tue 12:55:00 AM 38.1944 160.5502 246° West 428 493 35,000  Level FlightAware Transoceanic
Tue 12:56:00 AM 38.1461 160.4124 246° West 428 493 35,000  Level FlightAware Transoceanic
Tue 12:57:00 AM 38.0975 160.2747 246° West 428 493 35,000  Level FlightAware Transoceanic
Tue 12:58:00 AM 38.0489 160.1373 246° West 428 493 35,000  Level FlightAware Transoceanic
Tue 12:59:00 AM 38.0000 160.0000 253° West 428 493 35,000  Level FlightAware Transoceanic
Tue 01:00:00 AM 37.9637 159.8539 252° West 428 493 35,000  Level FlightAware Transoceanic
Tue 01:01:00 AM 37.9273 159.7079 252° West 428 493 35,000  Level FlightAware Transoceanic
Tue 01:02:00 AM 37.8906 159.5620 252° West 428 493 35,000  Level FlightAware Transoceanic
Tue 01:03:00 AM 37.8538 159.4163 252° West 428 493 35,000  Level FlightAware Transoceanic
Tue 01:04:00 AM 37.8168 159.2707 252° West 428 493 35,000  Level FlightAware Transoceanic
Tue 01:05:00 AM 37.7796 159.1253 252° West 428 493 35,000  Level FlightAware Transoceanic
Tue 01:06:00 AM 37.7423 158.9801 252° West 428 493 35,000  Level FlightAware Transoceanic
Tue 01:07:00 AM 37.7048 158.8349 252° West 428 493 35,000  Level FlightAware Transoceanic
Tue 01:08:00 AM 37.6670 158.6900 252° West 428 493 35,000  Level FlightAware Transoceanic
Tue 01:09:00 AM 37.6292 158.5451 252° West 428 493 35,000  Level FlightAware Transoceanic
Tue 01:10:00 AM 37.5911 158.4005 252° West 428 493 35,000  Level FlightAware Transoceanic
Tue 01:11:00 AM 37.5528 158.2559 251° West 428 493 35,000  Level FlightAware Transoceanic
Tue 01:12:00 AM 37.5144 158.1116 251° West 428 493 35,000  Level FlightAware Transoceanic
Tue 01:13:00 AM 37.4758 157.9673 251° West 428 493 35,000  Level FlightAware Transoceanic
Tue 01:14:00 AM 37.4371 157.8232 251° West 428 493 35,000  Level FlightAware Transoceanic
Tue 01:15:00 AM 37.3981 157.6793 251° West 428 493 35,000  Level FlightAware Transoceanic
Tue 01:16:00 AM 37.3590 157.5355 251° West 428 493 35,000  Level FlightAware Transoceanic
Tue 01:17:00 AM 37.3197 157.3919 251° West 428 493 35,000  Level FlightAware Transoceanic
Tue 01:18:00 AM 37.2803 157.2484 251° West 428 493 35,000  Level FlightAware Transoceanic
Tue 01:19:00 AM 37.2406 157.1051 251° West 428 493 35,000  Level FlightAware Transoceanic
Tue 01:20:00 AM 37.2008 156.9619 251° West 428 493 35,000  Level FlightAware Transoceanic
Tue 01:21:00 AM 37.1608 156.8188 251° West 428 493 35,000  Level FlightAware Transoceanic
Tue 01:22:00 AM 37.1207 156.6760 251° West 428 493 35,000  Level FlightAware Transoceanic
Tue 01:23:00 AM 37.0804 156.5332 250° West 428 493 35,000  Level FlightAware Transoceanic
Tue 01:24:00 AM 37.0399 156.3907 250° West 428 493 35,000  Level FlightAware Transoceanic
Tue 01:25:00 AM 36.9992 156.2482 250° West 428 493 35,000  Level FlightAware Transoceanic
Tue 01:26:00 AM 36.9584 156.1060 250° West 428 493 35,000  Level FlightAware Transoceanic
Tue 01:27:00 AM 36.9174 155.9639 250° West 428 493 35,000  Level FlightAware Transoceanic
Tue 01:28:00 AM 36.8762 155.8219 250° West 428 493 35,000  Level FlightAware Transoceanic
Tue 01:29:00 AM 36.8349 155.6801 250° West 428 493 35,000  Level FlightAware Transoceanic
Tue 01:30:00 AM 36.7933 155.5384 250° West 428 493 35,000  Level FlightAware Transoceanic
Tue 01:31:00 AM 36.7517 155.3969 250° West 428 493 35,000  Level FlightAware Transoceanic
Tue 01:32:00 AM 36.7098 155.2556 250° West 428 493 35,000  Level FlightAware Transoceanic
Tue 01:33:00 AM 36.6678 155.1144 250° West 428 493 35,000  Level FlightAware Transoceanic
Tue 01:34:00 AM 36.6256 154.9733 250° West 428 493 35,000  Level FlightAware Transoceanic
Tue 01:35:00 AM 36.5833 154.8324 249° West 428 493 35,000  Level FlightAware Transoceanic
Tue 01:36:00 AM 36.5408 154.6917 249° West 428 493 35,000  Level FlightAware Transoceanic
Tue 01:37:00 AM 36.4981 154.5511 249° West 428 493 35,000  Level FlightAware Transoceanic
Tue 01:38:00 AM 36.4552 154.4107 249° West 428 493 35,000  Level FlightAware Transoceanic
Tue 01:39:00 AM 36.4122 154.2704 249° West 428 493 35,000  Level FlightAware Transoceanic
Tue 01:40:00 AM 36.3691 154.1303 249° West 428 493 35,000  Level FlightAware Transoceanic
Tue 01:41:00 AM 36.3257 153.9904 249° West 428 493 35,000  Level FlightAware Transoceanic
Tue 01:42:00 AM 36.2822 153.8506 249° West 428 493 35,000  Level FlightAware Transoceanic
Tue 01:43:00 AM 36.2386 153.7109 249° West 428 493 35,000  Level FlightAware Transoceanic
Tue 01:44:00 AM 36.1948 153.5715 249° West 428 493 35,000  Level FlightAware Transoceanic
Tue 01:45:00 AM 36.1508 153.4321 249° West 428 493 35,000  Level FlightAware Transoceanic
Tue 01:46:00 AM 36.1066 153.2930 249° West 428 493 35,000  Level FlightAware Transoceanic
Tue 01:47:00 AM 36.0623 153.1539 248° West 428 493 35,000  Level FlightAware Transoceanic
Tue 01:48:00 AM 36.0179 153.0151 248° West 428 493 35,000  Level FlightAware Transoceanic
Tue 01:49:00 AM 35.9733 152.8764 248° West 428 493 35,000  Level FlightAware Transoceanic
Tue 01:50:00 AM 35.9285 152.7378 248° West 428 493 35,000  Level FlightAware Transoceanic
Tue 01:51:00 AM 35.8835 152.5994 248° West 428 493 35,000  Level FlightAware Transoceanic
Tue 01:52:00 AM 35.8384 152.4612 248° West 428 493 35,000  Level FlightAware Transoceanic
Tue 01:53:00 AM 35.7932 152.3231 248° West 428 493 35,000  Level FlightAware Transoceanic
Tue 01:54:00 AM 35.7477 152.1852 248° West 428 493 35,000  Level FlightAware Transoceanic
Tue 01:55:00 AM 35.7022 152.0474 248° West 428 493 35,000  Level FlightAware Transoceanic
Tue 01:56:00 AM 35.6564 151.9098 248° West 428 493 35,000  Level FlightAware Transoceanic
Tue 01:57:00 AM 35.6106 151.7724 248° West 428 493 35,000  Level FlightAware Transoceanic
Tue 01:58:00 AM 35.5645 151.6351 248° West 428 493 35,000  Level FlightAware Transoceanic
Tue 01:59:00 AM 35.5183 151.4980 247° West 428 493 35,000  Level FlightAware Transoceanic
Tue 02:00:00 AM 35.4720 151.3610 247° West 428 493 35,000  Level FlightAware Transoceanic
Tue 02:01:00 AM 35.4254 151.2242 247° West 428 493 35,000  Level FlightAware Transoceanic
Tue 02:02:00 AM 35.3788 151.0875 247° West 428 493 35,000  Level FlightAware Transoceanic
Tue 02:03:00 AM 35.3320 150.9510 247° West 428 493 35,000  Level FlightAware Transoceanic
Tue 02:04:00 AM 35.2850 150.8147 247° West 428 493 35,000  Level FlightAware Transoceanic
Tue 02:05:00 AM 35.2379 150.6785 247° West 428 493 35,000  Level FlightAware Transoceanic
Tue 02:06:00 AM 35.1906 150.5425 247° West 428 493 35,000  Level FlightAware Transoceanic
Tue 02:07:00 AM 35.1432 150.4066 247° West 428 493 35,000  Level FlightAware Transoceanic
Tue 02:08:00 AM 35.0956 150.2709 247° West 428 493 35,000  Level FlightAware Transoceanic
Tue 02:09:00 AM 35.0479 150.1354 247° West 428 493 35,000 39 Level FlightAware Transoceanic
Tue 02:10:00 AM 35.0453 150.0011 269° West  Level Estimated
Tue 02:11:00 AM 35.0426 149.8669 269° West  Level Estimated
Tue 02:12:00 AM 35.0398 149.7326 269° West  Level Estimated
Tue 02:13:00 AM 35.0368 149.5984 268° West  Level Estimated
Tue 02:14:00 AM 35.0336 149.4642 268° West  Level Estimated
Tue 02:15:00 AM 35.0303 149.3300 268° West  Level Estimated
Tue 02:16:00 AM 35.0269 149.1958 268° West  Level Estimated
Tue 02:17:00 AM 35.0233 149.0616 268° West  Level Estimated
Tue 02:18:00 AM 35.0195 148.9274 268° West  Level Estimated
Tue 02:19:00 AM 35.0156 148.7933 268° West  Level Estimated
Tue 02:20:00 AM 35.0116 148.6591 268° West  Level Estimated
Tue 02:21:00 AM 35.0074 148.5250 268° West  Level Estimated
Tue 02:22:00 AM 35.0031 148.3915 268° West  Level Estimated
Tue 02:23:00 AM 34.9986 148.2580 268° West  Level Estimated
Tue 02:24:00 AM 34.9940 148.1246 268° West  Level Estimated
Tue 02:25:00 AM 34.9893 147.9911 268° West  Level Estimated
Tue 02:26:00 AM 34.9844 147.8577 267° West  Level Estimated
Tue 02:27:00 AM 34.9794 147.7243 267° West  Level Estimated
Tue 02:28:00 AM 34.9742 147.5909 267° West  Level Estimated
Tue 02:29:00 AM 34.9688 147.4575 267° West  Level Estimated
Tue 02:30:00 AM 34.9634 147.3241 267° West  Level Estimated
Tue 02:31:00 AM 34.9577 147.1908 267° West  Level Estimated
Tue 02:32:00 AM 34.9520 147.0574 267° West  Level Estimated
Tue 02:33:00 AM 34.9461 146.9241 267° West  Level Estimated
Tue 02:34:00 AM 34.9400 146.7908 267° West  Level Estimated
Tue 02:35:00 AM 34.9338 146.6576 267° West  Level Estimated
Tue 02:36:00 AM 34.9274 146.5243 267° West  Level Estimated
Tue 02:37:00 AM 34.9209 146.3911 267° West  Level Estimated
Tue 02:38:00 AM 34.9143 146.2579 267° West  Level Estimated
Tue 02:39:00 AM 34.9075 146.1247 266° West  Level Estimated
Tue 02:40:00 AM 34.9006 145.9915 266° West  Level Estimated
Tue 02:41:00 AM 34.8935 145.8584 266° West  Level Estimated
Tue 02:42:00 AM 34.8863 145.7253 266° West  Level Estimated
Tue 02:43:00 AM 34.8789 145.5922 266° West  Level Estimated
Tue 02:44:00 AM 34.8714 145.4591 266° West  Level Estimated
Tue 02:45:00 AM 34.8637 145.3260 266° West  Level Estimated
Tue 02:46:00 AM 34.8559 145.1930 266° West  Level Estimated
Tue 02:47:00 AM 34.8480 145.0600 266° West  Level Estimated
Tue 02:48:00 AM 34.8399 144.9271 266° West  Level Estimated
Tue 02:49:00 AM 34.8317 144.7941 266° West  Level Estimated
Tue 02:50:00 AM 34.8233 144.6612 266° West  Level Estimated
Tue 02:51:00 AM 34.8148 144.5283 266° West  Level Estimated
Tue 02:52:00 AM 34.8061 144.3954 265° West  Level Estimated
Tue 02:53:00 AM 34.7973 144.2626 265° West  Level Estimated
Tue 02:54:00 AM 34.7883 144.1298 265° West  Level Estimated
Tue 02:55:00 AM 34.7792 143.9970 265° West  Level Estimated
Tue 02:56:00 AM 34.7700 143.8643 265° West  Level Estimated
Tue 02:57:00 AM 34.7606 143.7316 265° West  Level Estimated
Tue 02:58:00 AM 34.7510 143.5989 265° West  Level Estimated
Tue 02:59:00 AM 34.7413 143.4662 265° West  Level Estimated
Tue 03:00:00 AM 34.7315 143.3336 265° West  Level Estimated
Tue 03:01:00 AM 34.7215 143.2010 265° West  Level Estimated
Tue 03:02:00 AM 34.7114 143.0685 265° West  Level Estimated
Tue 03:03:00 AM 34.7012 142.9359 265° West  Level Estimated
Tue 03:04:00 AM 34.6908 142.8034 265° West  Level Estimated
Tue 03:05:00 AM 34.6802 142.6710 265° West  Level Estimated
Tue 03:06:00 AM 34.6696 142.5385 264° West  Level Estimated
Tue 03:07:00 AM 34.6587 142.4062 264° West  Level Estimated
Tue 03:08:00 AM 34.6478 142.2738 264° West  Level Estimated
Tue 03:09:00 AM 34.6367 142.1415 264° West  Level Estimated
Tue 03:10:00 AM 34.6254 142.0092 264° West  Level Estimated
Tue 03:11:00 AM 34.6140 141.8769 264° West  Level Estimated
Tue 03:12:00 AM 34.6025 141.7447 264° West  Level Estimated
Tue 03:13:00 AM 34.5908 141.6125 264° West  Level Estimated
Tue 03:14:00 AM 34.5789 141.4804 264° West  Level Estimated
Tue 03:15:00 AM 34.5670 141.3483 264° West  Level Estimated
Tue 03:16:00 AM 34.5549 141.2162 264° West  Level Estimated
Tue 03:17:00 AM 34.5426 141.0842 264° West  Level Estimated
Tue 03:18:00 AM 34.5302 140.9523 264° West  Level Estimated
Tue 03:19:00 AM 34.5177 140.8203 263° West  Level Estimated
Tue 03:20:00 AM 34.5050 140.6884 263° West  Level Estimated
Tue 03:21:00 AM 34.4922 140.5565 263° West  Level Estimated
Tue 03:22:00 AM 34.4792 140.4247 263° West  Level Estimated
Tue 03:23:00 AM 34.4661 140.2929 263° West  Level Estimated
Tue 03:24:00 AM 34.4529 140.1612 263° West  Level Estimated
Tue 03:25:00 AM 34.4395 140.0295 263° West  Level Estimated
Tue 03:25:16 AM 34.9450 141.1560 263° West 373 429 38,000  Level FlightAware ADS-B
Tue 03:26:00 AM 34.4259 139.8978 263° West  Level Estimated
Tue 03:26:00 AM 34.9550 141.0630 278° West 367 422 38,000  Level FlightAware ADS-B
Tue 03:27:34 AM 34.9750 140.8670 277° West 377 434 38,000  Level FlightAware ADS-B
Tue 03:28:08 AM 34.9820 140.7990 277° West 377 434 38,000  Level FlightAware ADS-B
Tue 03:28:52 AM 34.9920 140.7040 277° West 379 436 38,000  Level FlightAware ADS-B
Tue 03:29:50 AM 35.0030 140.5890 277° West 380 437 38,000  Level FlightAware ADS-B
Tue 03:30:24 AM 35.0110 140.5090 277° West 379 436 38,000  Level FlightAware ADS-B
Tue 03:30:56 AM 35.0180 140.4430 277° West 379 436 38,000  Level FlightAware ADS-B
Tue 03:31:27 AM 35.0240 140.3770 276° West 377 434 38,000  Level FlightAware ADS-B
Tue 03:31:56 AM 35.0300 140.3180 277° West 377 434 38,000  Level FlightAware ADS-B
Tue 03:32:32 AM 35.0380 140.2390 277° West 379 436 38,000  Level FlightAware ADS-B
Tue 03:33:08 AM 35.0450 140.1630 276° West 380 437 38,000  Level FlightAware ADS-B
Tue 03:33:44 AM 35.0530 140.0860 277° West 379 436 38,000  Level FlightAware ADS-B
Tue 03:34:22 AM 35.0600 140.0060 276° West 379 436 38,000  Level FlightAware ADS-B
Tue 03:34:58 AM 35.0680 139.9300 277° West 378 435 38,000  Level FlightAware ADS-B
Tue 03:35:28 AM 35.0730 139.8670 276° West 378 435 38,000  Level FlightAware ADS-B
Tue 03:36:05 AM 35.0810 139.7900 277° West 379 436 38,000  Level FlightAware ADS-B
Tue 03:36:25 AM 35.0834 139.7602 276° West 379 436 38,000  Level FlightAware ADS-B
Tue 03:36:34 AM 35.0870 139.7270 277° West 378 435 38,000  Level FlightAware ADS-B
Tue 03:37:02 AM 35.0915 139.6725 276° West 376 433 38,000  Level FlightAware ADS-B
Tue 03:37:04 AM 35.0920 139.6640 274° West 377 434 38,000  Level FlightAware ADS-B
Tue 03:37:35 AM 35.0980 139.6000 277° West 377 434 38,000  Level FlightAware ADS-B
Tue 03:37:46 AM 35.1000 139.5807 277° West 376 433 38,000  Level FlightAware ADS-B
Tue 03:38:31 AM 35.1088 139.4841 276° West 381 438 38,000  Level FlightAware ADS-B
Tue 03:38:32 AM 35.1090 139.4780 273° West 382 440 38,000  Level FlightAware ADS-B
Tue 03:39:01 AM 35.1149 139.4169 277° West 383 441 38,000  Level FlightAware ADS-B
Tue 03:39:32 AM 35.1196 139.3646 276° West 383 441 38,000  Level FlightAware ADS-B
Tue 03:40:02 AM 35.1262 139.2911 276° West 386 444 38,000  Level FlightAware ADS-B
Tue 03:40:33 AM 35.1325 139.2201 276° West 386 444 38,000  Level FlightAware ADS-B
Tue 03:41:03 AM 35.1380 139.1573 276° West 382 440 38,000  Level FlightAware ADS-B
Tue 03:41:42 AM 35.1447 139.0835 276° West 381 438 38,000  Level FlightAware ADS-B
Tue 03:44:00 AM 35.0979 138.7800 259° West  Level Estimated
Tue 03:45:00 AM 35.0773 138.6482 259° West  Level Estimated
Tue 03:46:00 AM 35.0566 138.5164 259° West  Level Estimated
Tue 03:47:00 AM 35.0358 138.3848 259° West  Level Estimated
Tue 03:48:00 AM 35.0148 138.2531 259° West  Level Estimated
Tue 03:49:00 AM 34.9936 138.1216 259° West  Level Estimated
Tue 03:50:00 AM 34.9724 137.9901 259° West  Level Estimated
Tue 03:51:00 AM 34.9510 137.8587 259° West  Level Estimated
Tue 03:52:00 AM 34.9294 137.7273 259° West  Level Estimated
Tue 03:53:00 AM 34.9077 137.5960 259° West  Level Estimated
Tue 03:54:00 AM 34.8858 137.4648 259° West  Level Estimated
Tue 03:55:00 AM 34.8639 137.3337 258° West  Level Estimated
Tue 03:56:00 AM 34.8418 137.2026 258° West  Level Estimated
Tue 03:57:00 AM 34.8195 137.0716 258° West  Level Estimated
Tue 03:58:00 AM 34.7971 136.9407 258° West  Level Estimated
Tue 03:59:00 AM 34.7745 136.8098 258° West  Level Estimated
Tue 04:00:00 AM 34.7519 136.6790 258° West  Level Estimated
Tue 04:01:00 AM 34.7290 136.5483 258° West  Level Estimated
Tue 04:02:00 AM 34.7061 136.4177 258° West  Level Estimated
Tue 04:03:00 AM 34.6830 136.2871 258° West  Level Estimated
Tue 04:04:00 AM 34.6597 136.1566 258° West  Level Estimated
Tue 04:05:00 AM 34.6364 136.0262 258° West  Level Estimated
Tue 04:06:00 AM 34.6128 135.8958 258° West  Level Estimated
Tue 04:07:00 AM 34.5892 135.7655 258° West  Level Estimated
Tue 04:08:00 AM 34.5654 135.6353 258° West  Level Estimated
Tue 04:09:00 AM 34.5414 135.5052 257° West  Level Estimated
Tue 04:10:00 AM 34.5174 135.3752 257° West  Level Estimated
Tue 04:11:00 AM 34.4932 135.2452 257° West  Level Estimated
Tue 04:12:00 AM 34.4688 135.1153 257° West  Level Estimated
Tue 04:13:00 AM 34.4443 134.9854 257° West  Level Estimated
Tue 04:14:00 AM 34.4197 134.8557 257° West  Level Estimated
Tue 04:15:00 AM 34.3949 134.7260 257° West  Level Estimated
Tue 04:16:00 AM 34.3700 134.5964 257° West  Level Estimated
Tue 04:17:00 AM 34.3450 134.4669 257° West  Level Estimated
Tue 04:18:00 AM 34.3198 134.3375 257° West  Level Estimated
Tue 04:19:00 AM 34.2945 134.2081 257° West  Level Estimated
Tue 04:20:00 AM 34.2691 134.0788 257° West  Level Estimated
Tue 04:21:00 AM 34.2435 133.9496 257° West  Level Estimated
Tue 04:22:00 AM 34.2178 133.8205 256° West  Level Estimated
Tue 04:23:00 AM 34.1920 133.6914 256° West  Level Estimated
Tue 04:24:00 AM 34.1660 133.5625 256° West  Level Estimated
Tue 04:25:00 AM 34.1399 133.4336 256° West  Level Estimated
Tue 04:26:00 AM 34.1136 133.3048 256° West  Level Estimated
Tue 04:27:00 AM 34.0872 133.1760 256° West  Level Estimated
Tue 04:28:00 AM 34.0607 133.0474 256° West  Level Estimated
Tue 04:29:00 AM 34.0340 132.9188 256° West  Level Estimated
Tue 04:30:00 AM 34.0072 132.7903 256° West  Level Estimated
Tue 04:31:00 AM 33.9803 132.6619 256° West  Level Estimated
Tue 04:32:00 AM 33.9533 132.5336 256° West  Level Estimated
Tue 04:33:00 AM 33.9261 132.4053 256° West  Level Estimated
Tue 04:34:00 AM 33.8988 132.2772 256° West  Level Estimated
Tue 04:35:00 AM 33.8713 132.1491 256° West  Level Estimated
Tue 04:36:00 AM 33.8437 132.0211 255° West  Level Estimated
Tue 04:37:00 AM 33.8160 131.8932 255° West  Level Estimated
Tue 04:38:00 AM 33.7881 131.7654 255° West  Level Estimated
Tue 04:39:00 AM 33.7602 131.6376 255° West  Level Estimated
Tue 04:40:00 AM 33.7321 131.5099 255° West  Level Estimated
Tue 04:41:00 AM 33.7038 131.3824 255° West  Level Estimated
Tue 04:42:00 AM 33.6754 131.2549 255° West  Level Estimated
Tue 04:43:00 AM 33.6469 131.1275 255° West  Level Estimated
Tue 04:44:00 AM 33.6183 131.0001 255° West  Level Estimated
Tue 04:45:00 AM 33.5895 130.8729 255° West  Level Estimated
Tue 04:46:00 AM 33.5606 130.7457 255° West  Level Estimated
Tue 04:47:00 AM 33.5316 130.6187 255° West  Level Estimated
Tue 04:48:00 AM 33.5024 130.4917 255° West  Level Estimated
Tue 04:49:00 AM 33.4731 130.3648 255° West  Level Estimated
Tue 04:50:00 AM 33.4437 130.2379 254° West  Level Estimated
Tue 04:51:00 AM 33.4142 130.1112 254° West  Level Estimated
Tue 04:52:00 AM 33.3845 129.9846 254° West  Level Estimated
Tue 04:53:00 AM 33.3547 129.8580 254° West  Level Estimated
Tue 04:54:00 AM 33.3247 129.7316 254° West  Level Estimated
Tue 04:55:00 AM 33.2947 129.6052 254° West  Level Estimated
Tue 04:56:00 AM 33.2645 129.4789 254° West  Level Estimated
Tue 04:57:00 AM 33.2342 129.3527 254° West  Level Estimated
Tue 04:58:00 AM 33.2038 129.2265 254° West  Level Estimated
Tue 04:59:00 AM 33.1732 129.1005 254° West  Level Estimated
Tue 05:00:00 AM 33.1425 128.9746 254° West  Level Estimated
Tue 05:01:00 AM 33.1117 128.8487 254° West  Level Estimated
Tue 05:02:00 AM 33.0807 128.7229 254° West  Level Estimated
Tue 05:03:00 AM 33.0496 128.5973 254° West  Level Estimated
Tue 05:04:00 AM 33.0184 128.4717 254° West  Level Estimated
Tue 05:05:00 AM 32.9871 128.3462 253° West  Level Estimated
Tue 05:06:00 AM 32.9557 128.2208 253° West  Level Estimated
Tue 05:07:00 AM 32.9241 128.0954 253° West  Level Estimated
Tue 05:08:00 AM 32.8924 127.9702 253° West  Level Estimated
Tue 05:09:00 AM 32.8605 127.8451 253° West  Level Estimated
Tue 05:10:00 AM 32.8286 127.7200 253° West  Level Estimated
Tue 05:11:00 AM 32.7965 127.5951 253° West  Level Estimated
Tue 05:12:00 AM 32.7643 127.4702 253° West  Level Estimated
Tue 05:13:00 AM 32.7320 127.3454 253° West  Level Estimated
Tue 05:14:00 AM 32.6996 127.2207 253° West  Level Estimated
Tue 05:15:00 AM 32.6670 127.0961 253° West  Level Estimated
Tue 05:16:00 AM 32.6343 126.9716 253° West  Level Estimated
Tue 05:17:00 AM 32.6015 126.8472 253° West  Level Estimated
Tue 05:18:00 AM 32.5685 126.7229 253° West  Level Estimated
Tue 05:19:00 AM 32.5355 126.5986 253° West  Level Estimated
Tue 05:20:00 AM 32.5023 126.4745 252° West  Level Estimated
Tue 05:21:00 AM 32.4690 126.3504 252° West  Level Estimated
Tue 05:22:00 AM 32.4356 126.2265 252° West  Level Estimated
Tue 05:23:00 AM 32.4020 126.1026 252° West  Level Estimated
Tue 05:24:00 AM 32.3683 125.9788 252° West  Level Estimated
Tue 05:25:00 AM 32.3345 125.8551 252° West  Level Estimated
Tue 05:26:00 AM 32.3006 125.7316 252° West  Level Estimated
Tue 05:27:00 AM 32.2666 125.6080 252° West  Level Estimated
Tue 05:28:00 AM 32.2325 125.4846 252° West  Level Estimated
Tue 05:29:00 AM 32.1982 125.3613 252° West  Level Estimated
Tue 05:30:00 AM 32.1638 125.2381 252° West  Level Estimated
Tue 05:31:00 AM 32.1293 125.1150 252° West  Level Estimated
Tue 05:32:00 AM 32.0947 124.9920 252° West  Level Estimated
Tue 05:33:00 AM 32.0599 124.8690 252° West  Level Estimated
Tue 05:34:00 AM 32.0251 124.7462 252° West  Level Estimated
Tue 05:35:00 AM 31.9901 124.6234 251° West  Level Estimated
Tue 05:36:00 AM 31.9550 124.5007 251° West  Level Estimated
Tue 05:37:00 AM 31.9198 124.3782 251° West  Level Estimated
Tue 05:38:00 AM 31.8844 124.2557 251° West  Level Estimated
Tue 05:39:00 AM 31.8490 124.1333 251° West  Level Estimated
Tue 05:40:00 AM 31.8134 124.0110 251° West  Level Estimated
Tue 05:41:00 AM 31.7777 123.8889 251° West  Level Estimated
Tue 05:42:00 AM 31.7419 123.7668 251° West  Level Estimated
Tue 05:43:00 AM 31.7060 123.6448 251° West  Level Estimated
Tue 05:44:00 AM 31.6699 123.5229 251° West  Level Estimated
Tue 05:45:00 AM 31.6338 123.4010 251° West  Level Estimated
Tue 05:46:00 AM 31.5975 123.2793 251° West  Level Estimated
Tue 05:47:00 AM 31.5611 123.1577 251° West  Level Estimated
Tue 05:48:00 AM 31.5246 123.0362 251° West  Level Estimated
Tue 05:49:00 AM 31.4880 122.9147 251° West  Level Estimated
Tue 05:50:00 AM 31.4513 122.7934 250° West  Level Estimated
Tue 05:51:00 AM 31.4145 122.6722 250° West  Level Estimated
Tue 05:52:00 AM 31.3775 122.5510 250° West  Level Estimated
Tue 05:53:00 AM 31.3404 122.4300 250° West  Level Estimated
Tue 05:54:00 AM 31.3032 122.3090 250° West  Level Estimated
Tue 05:55:00 AM 31.2659 122.1882 250° West  Level Estimated
Tue 05:56:00 AM 31.2285 122.0674 250° West  Level Estimated
Tue 05:57:00 AM 31.1910 121.9467 250° West  Level Estimated
Tue 05:58:00 AM 31.1534 121.8262 250° West  Level Estimated
Tue 05:59:00 AM 31.1428 121.7924 250° West  Level Estimated
Tue 06:00:00 AM 31.1428 121.7924 221° Southwest  Level Estimated
Tue 06:01:00 AM 31.1428 121.7924 221° Southwest  Level Estimated
Tue 06:02:00 AM 31.1428 121.7924 221° Southwest  Level Estimated
Tue 06:03:00 AM 31.1428 121.7924 221° Southwest  Level Estimated
Tue 06:04:00 AM 31.1428 121.7924 221° Southwest  Level Estimated
Tue 06:05:00 AM 31.1428 121.7924 221° Southwest  Level Estimated
Tue 06:06:00 AM 31.1428 121.7924 221° Southwest  Level Estimated
Tue 06:07:00 AM 31.1428 121.7924 221° Southwest  Level Estimated
Tue 06:08:00 AM 31.1428 121.7924 221° Southwest  Level Estimated
Tue 06:09:00 AM 31.1428 121.7924 221° Southwest  Level Estimated
Tue 06:10:00 AM 31.1428 121.7924 221° Southwest  Level Estimated
Tue 06:11:00 AM 31.1428 121.7924 221° Southwest  Level Estimated
Tue 06:12:00 AM 31.1428 121.7924 221° Southwest  Level Estimated
Tue 06:13:00 AM 31.1428 121.7924 221° Southwest  Level Estimated
Tue 06:14:00 AM 31.1428 121.7924 221° Southwest  Level Estimated
Tue 06:15:00 AM 31.1428 121.7924 221° Southwest  Level Estimated
Tue 06:16:00 AM 31.1428 121.7924 221° Southwest  Level Estimated
Tue 06:17:00 AM 31.1428 121.7924 221° Southwest  Level Estimated
Tue 06:18:00 AM 31.1428 121.7924 221° Southwest  Level Estimated
Tue 06:19:00 AM 31.1428 121.7924 221° Southwest  Level Estimated
Tue 06:20:00 AM 31.1428 121.7924 221° Southwest  Level Estimated
Tue 06:21:00 AM 31.1428 121.7924 221° Southwest  Level Estimated
Tue 06:22:00 AM 31.1428 121.7924 221° Southwest  Level Estimated
Tue 06:23:00 AM 31.1428 121.7924 221° Southwest  Level Estimated
Tue 06:24:00 AM 31.1428 121.7924 221° Southwest  Level Estimated

Login

Don't have an account? Register now (free) for customized features, flight alerts, and more!